Latest Weather Observations for Canterbury

IDN60801

Issued at 2:35 pm EST Wednesday 20 August 2014 (issued every 30 minutes, with the page automatically refreshed every 10 minutes)

About weather observations | Map of weather stations | Latest weather observations for NSW | Other Formats
Station Details ID: 066194 Name: CANTERBURY RACECOURSE AWS Lat: -33.91 Lon: 151.11 Height: 3.0 m
Data from the previous 72 hours. | See also: Recent months at Canterbury
Date/Time
EST
Temp
°C
App
Temp
°C
Dew
Point
Rel
Hum
%
Delta-T
°C
Wind Press
QNH
hPa
Press
MSL
hPa
Rain
since 9 am
mm
Dir
 
Spd
km/h
Gust
km/h
Spd
kts
Gust
kts
20/02:30pm 15.4 10.6 5.6 52 4.7 SSE 20 32 11 17 - - 0.0
20/02:00pm 15.6 11.2 6.6 55 4.4 S 19 28 10 15 - - 0.0
20/01:30pm 14.7 9.7 6.3 57 4.0 S 22 33 12 18 - - 0.0
20/01:00pm 14.9 9.7 5.7 54 4.4 S 22 32 12 17 - - 0.0
20/12:30pm 15.1 10.9 5.9 54 4.4 S 17 30 9 16 - - 0.0
20/12:00pm 14.7 10.2 6.3 57 4.0 S 19 28 10 15 - - 0.0
20/11:30am 14.3 9.9 6.6 60 3.7 S 19 32 10 17 - - 0.0
20/11:00am 14.2 9.7 6.1 58 3.9 S 19 28 10 15 - - 0.0
20/10:30am 14.0 9.3 5.9 58 3.8 S 20 35 11 19 - - 0.0
20/10:00am 14.4 10.9 7.0 61 3.6 SSW 15 24 8 13 - - 0.0
20/09:30am 13.1 9.2 6.9 66 3.0 WSW 17 26 9 14 - - 0.0
20/09:00am 12.8 9.3 7.0 68 2.8 WSW 15 22 8 12 - - 7.4
20/08:30am 11.8 7.7 6.1 68 2.7 WSW 17 24 9 13 - - 7.4
20/08:00am 12.0 8.8 6.9 71 2.4 WSW 13 19 7 10 - - 7.4
20/07:30am 10.0 7.4 6.0 76 1.8 WSW 9 15 5 8 - - 7.4
20/07:00am 9.8 6.0 5.6 75 1.9 WSW 15 20 8 11 - - 7.4
20/06:30am 9.8 6.3 5.4 74 2.0 W 13 20 7 11 - - 7.4
20/06:00am 10.1 6.5 5.1 71 2.3 WSW 13 17 7 9 - - 7.4
20/05:30am 10.0 6.0 4.8 70 2.3 W 15 22 8 12 - - 7.4
20/05:00am 9.8 6.2 4.8 71 2.2 WSW 13 20 7 11 - - 7.4
20/04:30am 9.5 5.5 4.7 72 2.1 WSW 15 20 8 11 - - 7.4
20/04:00am 9.4 5.3 4.6 72 2.1 WSW 15 20 8 11 - - 7.4
20/03:30am 9.6 5.9 4.4 70 2.3 W 13 19 7 10 - - 7.4
20/03:00am 9.6 5.5 4.6 71 2.2 WSW 15 20 8 11 - - 7.4
20/02:30am 9.2 5.5 4.4 72 2.1 WSW 13 17 7 9 - - 7.4
20/02:00am 9.6 6.3 4.4 70 2.3 WSW 11 17 6 9 - - 7.4
20/01:30am 9.7 6.0 4.7 71 2.2 WSW 13 20 7 11 - - 7.4
20/01:00am 10.1 6.5 5.1 71 2.3 WSW 13 19 7 10 - - 7.4
20/12:30am 10.7 7.6 5.5 70 2.4 WSW 11 17 6 9 - - 7.4
20/12:00am 11.9 8.4 5.3 64 3.0 SW 13 24 7 13 - - 7.4
 
Date/Time
EST
Temp
°C
App
Temp
°C
Dew
Point
Rel
Hum
%
Delta-T
°C
Wind Press
QNH
hPa
Press
MSL
hPa
Rain
since 9 am
mm
Dir
 
Spd
km/h
Gust
km/h
Spd
kts
Gust
kts
19/11:30pm 12.5 8.6 5.4 62 3.3 SW 15 24 8 13 - - 7.4
19/11:00pm 13.0 8.2 5.7 61 3.4 SSW 20 35 11 19 - - 7.4
19/10:30pm 12.9 8.7 5.6 61 3.4 SSW 17 28 9 15 - - 7.4
19/10:00pm 13.3 8.6 5.9 61 3.5 SSW 20 41 11 22 - - 7.4
19/09:30pm 13.2 9.1 6.3 63 3.3 SSW 17 26 9 14 - - 7.4
19/09:00pm 13.3 9.2 6.2 62 3.4 SW 17 30 9 16 - - 7.4
19/08:30pm 13.4 9.5 7.0 65 3.1 SW 17 28 9 15 - - 7.4
19/08:00pm 13.3 9.1 7.3 67 2.9 SSW 19 35 10 19 - - 7.4
19/07:30pm 13.2 9.5 7.9 70 2.6 SSW 17 32 9 17 - - 7.4
19/07:00pm 12.7 9.5 8.6 76 2.0 SW 15 22 8 12 - - 7.4
19/06:46pm 12.4 9.4 9.1 80 1.7 SW 15 24 8 13 - - 7.4
19/06:30pm 12.2 8.5 9.4 83 1.4 SSW 19 30 10 16 - - 7.4
19/06:14pm 12.9 10.3 9.4 79 1.8 SSW 13 20 7 11 - - 7.0
19/06:00pm 12.9 9.5 9.0 77 2.0 SSW 17 32 9 17 - - 7.0
19/05:30pm 12.8 8.9 9.4 80 1.7 SSW 20 32 11 17 - - 7.0
19/05:08pm 12.6 9.0 10.0 84 1.3 SSW 19 30 10 16 - - 7.0
19/05:00pm 12.5 9.0 10.2 86 1.2 SSW 19 33 10 18 - - 7.0
19/04:30pm 12.5 9.5 10.7 89 0.9 S 17 26 9 14 - - 5.8
19/04:00pm 13.2 10.2 10.7 85 1.3 SSW 17 30 9 16 - - 3.4
19/03:57pm 13.2 10.6 10.7 85 1.3 SSW 15 28 8 15 - - 3.2
19/03:46pm 13.3 10.3 10.8 85 1.3 SSW 17 30 9 16 - - 3.2
19/03:30pm 13.7 10.1 10.5 81 1.7 SSW 20 32 11 17 - - 3.2
19/03:12pm 13.5 9.1 10.5 82 1.6 SSW 24 39 13 21 - - 3.2
19/03:00pm 13.6 9.0 11.1 85 1.3 SSW 26 41 14 22 - - 3.0
19/02:53pm 13.4 9.1 10.9 85 1.3 SSW 24 41 13 22 - - 3.0
19/02:49pm 13.6 9.7 10.9 84 1.4 SSW 22 35 12 19 - - 3.0
19/02:30pm 13.3 9.8 10.8 85 1.3 SSW 20 33 11 18 - - 2.8
19/02:28pm 13.6 10.4 11.1 85 1.3 SSW 19 33 10 18 - - 2.4
19/02:27pm 13.7 10.8 10.9 83 1.5 SSW 17 30 9 16 - - 1.8
19/02:09pm 13.8 10.8 10.6 81 1.7 SW 17 28 9 15 - - 1.4
19/02:00pm 14.0 11.2 11.2 83 1.5 SSW 17 24 9 13 - - 1.4
19/01:49pm 13.6 9.6 10.6 82 1.6 SSW 22 39 12 21 - - 1.2
19/01:30pm 13.5 8.9 11.0 85 1.3 S 26 48 14 26 - - 1.2
19/01:26pm 13.7 8.8 10.1 79 1.9 S 26 48 14 26 - - 0.8
19/01:10pm 13.9 10.3 10.7 81 1.7 SSW 20 35 11 19 - - 0.8
19/01:00pm 14.0 10.2 11.2 83 1.5 SSW 22 35 12 19 - - 0.6
19/12:53pm 14.1 10.6 10.9 81 1.7 S 20 35 11 19 - - 0.6
19/12:46pm 14.6 11.3 11.0 79 1.9 S 19 32 10 17 - - 0.4
19/12:30pm 14.1 9.8 10.9 81 1.7 S 24 41 13 22 - - 0.4
19/12:16pm 15.5 11.5 10.3 71 2.7 S 22 39 12 21 - - 0.0
19/12:00pm 16.3 11.8 9.9 66 3.4 SSW 24 41 13 22 - - 0.0
19/11:44am 16.1 10.8 9.8 66 3.3 SSW 28 52 15 28 - - 0.0
19/11:30am 17.2 12.6 11.0 67 3.3 S 26 39 14 21 - - 0.0
19/11:00am 16.3 12.3 10.6 69 3.0 S 22 39 12 21 - - 0.0
19/10:30am 16.3 12.4 10.8 70 2.9 S 22 37 12 20 - - 0.0
19/10:00am 15.3 10.9 10.5 73 2.5 SSW 24 37 13 20 - - 0.0
19/09:30am 14.9 11.5 11.3 79 1.9 SSW 20 37 11 20 - - 0.0
19/09:23am 14.6 11.4 11.2 80 1.8 SSW 19 35 10 19 - - 0.0
19/09:06am 14.1 10.8 10.9 81 1.7 SSW 19 28 10 15 - - 0.0
19/09:00am 15.0 11.8 11.4 79 1.9 SSW 19 26 10 14 - - 60.8
19/08:30am 14.7 11.1 10.7 77 2.1 SSW 20 41 11 22 - - 60.8
19/08:24am 14.5 11.1 11.3 81 1.7 S 20 33 11 18 - - 60.8
19/08:06am 14.1 9.6 11.3 83 1.5 S 26 44 14 24 - - 60.8
19/08:00am 14.4 10.6 11.2 81 1.7 S 22 44 12 24 - - 60.8
19/07:30am 14.4 11.0 10.4 77 2.1 S 19 35 10 19 - - 60.6
19/07:00am 13.8 10.4 10.6 81 1.7 S 19 28 10 15 - - 60.6
19/06:30am 13.1 10.4 11.7 91 0.7 S 17 30 9 16 - - 60.6
19/06:27am 13.0 10.7 11.6 91 0.7 S 15 30 8 16 - - 60.6
19/06:02am 12.9 7.6 11.3 90 0.8 S 30 54 16 29 - - 60.2
19/06:00am 12.9 7.7 11.5 91 0.7 S 30 43 16 23 - - 60.0
19/05:46am 13.4 10.2 11.8 90 0.9 SSE 20 28 11 15 - - 57.2
19/05:33am 13.3 11.1 12.0 92 0.7 SW 15 19 8 10 - - 57.2
19/05:30am 13.2 10.9 11.8 91 0.7 SW 15 19 8 10 - - 57.2
19/05:00am 13.2 10.0 11.9 92 0.7 S 20 35 11 19 - - 56.8
19/04:33am 12.7 7.8 11.4 92 0.7 S 28 46 15 25 - - 55.4
19/04:30am 12.9 8.8 11.6 92 0.7 S 24 46 13 25 - - 55.2
19/04:00am 13.2 10.3 12.3 94 0.5 S 19 32 10 17 - - 53.4
19/03:30am 13.1 11.0 12.3 95 0.4 S 15 24 8 13 - - 49.2
19/03:00am 13.2 11.4 12.1 93 0.6 SSW 13 20 7 11 - - 44.0
19/02:30am 13.2 10.0 11.8 91 0.7 SSW 20 30 11 16 - - 43.6
19/02:00am 13.9 11.3 12.1 89 1.0 SSW 17 26 9 14 - - 43.0
19/01:51am 13.9 11.7 12.1 89 1.0 SSW 15 24 8 13 - - 43.0
19/01:45am 13.9 11.3 12.1 89 1.0 SSW 17 26 9 14 - - 42.8
19/01:30am 13.9 11.0 12.3 90 0.9 S 19 32 10 17 - - 42.8
19/01:16am 14.0 11.1 12.4 90 0.9 S 19 35 10 19 - - 42.6
19/01:08am 13.9 10.8 12.1 89 1.0 S 20 37 11 20 - - 42.4
19/01:00am 14.0 11.2 12.6 91 0.8 S 19 37 10 20 - - 42.4
19/12:41am 14.1 11.8 13.1 94 0.6 SSW 17 32 9 17 - - 42.0
19/12:39am 14.1 11.5 13.1 94 0.6 SSW 19 32 10 17 - - 42.0
19/12:30am 14.1 11.5 13.1 94 0.6 SSW 19 28 10 15 - - 42.0
19/12:00am 14.1 11.5 13.3 95 0.4 S 19 33 10 18 - - 38.4
 
Date/Time
EST
Temp
°C
App
Temp
°C
Dew
Point
Rel
Hum
%
Delta-T
°C
Wind Press
QNH
hPa
Press
MSL
hPa
Rain
since 9 am
mm
Dir
 
Spd
km/h
Gust
km/h
Spd
kts
Gust
kts
18/11:30pm 13.9 12.6 13.6 98 0.2 SSW 13 20 7 11 - - 37.2
18/11:00pm 13.7 10.9 12.6 93 0.6 S 19 32 10 17 - - 34.4
18/10:30pm 14.2 11.9 13.1 93 0.6 S 17 32 9 17 - - 28.8
18/10:26pm 14.2 11.9 13.1 93 0.6 S 17 26 9 14 - - 28.6
18/10:16pm 14.2 11.6 13.1 93 0.6 SSW 19 32 10 17 - - 28.6
18/10:00pm 14.3 11.5 13.3 94 0.6 S 20 37 11 20 - - 28.6
18/09:30pm 14.3 11.7 13.3 94 0.6 SSW 19 32 10 17 - - 26.2
18/09:26pm 14.4 11.8 13.3 93 0.6 SSW 19 32 10 17 - - 25.0
18/09:25pm 14.4 11.8 13.3 93 0.6 SSW 19 32 10 17 - - 25.0
18/09:00pm 14.1 11.5 13.9 99 0.1 SSW 20 28 11 15 - - 24.8
18/08:38pm 12.4 10.2 12.1 98 0.2 WSW 15 20 8 11 - - 23.8
18/08:36pm 12.4 10.6 12.1 98 0.2 WSW 13 20 7 11 - - 23.8
18/08:30pm 12.4 10.6 12.1 98 0.2 WSW 13 22 7 12 - - 23.8
18/08:00pm 12.3 9.2 11.7 96 0.3 WSW 19 26 10 14 - - 22.4
18/07:39pm 12.3 9.6 11.7 96 0.3 WSW 17 24 9 13 - - 20.4
18/07:30pm 12.3 9.2 11.7 96 0.3 WSW 19 30 10 16 - - 20.4
18/07:28pm 12.3 9.0 11.7 96 0.3 WSW 20 30 11 16 - - 20.4
18/07:00pm 12.4 9.1 11.6 95 0.4 WSW 20 33 11 18 - - 18.6
18/06:30pm 12.5 9.2 11.6 94 0.5 WSW 20 32 11 17 - - 16.0
18/06:00pm 12.7 9.4 11.6 93 0.6 WSW 20 32 11 17 - - 15.0
18/05:30pm 13.0 9.7 11.6 91 0.7 WSW 20 32 11 17 - - 14.4
18/05:23pm 13.2 10.0 11.4 89 1.0 WSW 19 28 10 15 - - 14.4
18/05:00pm 13.6 9.4 11.1 85 1.3 SW 24 41 13 22 - - 14.4
18/04:41pm 13.5 9.8 11.4 87 1.1 SW 22 32 12 17 - - 14.4
18/04:30pm 13.2 9.1 11.3 88 1.0 SW 24 41 13 22 - - 14.4
18/04:14pm 13.1 9.3 11.3 89 1.0 SW 22 37 12 20 - - 14.2
18/04:08pm 13.1 9.0 11.3 89 1.0 SW 24 33 13 18 - - 14.2
18/04:00pm 13.1 8.9 11.2 88 1.0 SW 24 35 13 19 - - 14.2
18/03:52pm 13.1 9.4 11.5 90 0.8 SW 22 39 12 21 - - 14.2
18/03:48pm 13.1 9.0 11.5 90 0.8 SW 24 43 13 23 - - 14.2
18/03:30pm 13.1 8.3 11.7 91 0.7 SSW 28 46 15 25 - - 14.2
18/03:26pm 13.1 8.3 11.5 90 0.8 SSW 28 46 15 25 - - 14.2
18/03:00pm 13.2 9.2 11.8 91 0.7 SSW 24 41 13 22 - - 14.0
18/02:55pm 13.3 8.8 11.5 89 1.0 SSW 26 57 14 31 - - 14.0
18/02:52pm 13.4 8.5 11.3 87 1.1 SSW 28 57 15 31 - - 14.0
18/02:51pm 13.4 8.9 11.3 87 1.1 SSW 26 57 14 31 - - 14.0
18/02:34pm 13.3 8.4 11.4 88 1.0 SSW 28 57 15 31 - - 14.0
18/02:30pm 13.5 9.5 11.9 90 0.9 SSW 24 43 13 23 - - 14.0
18/02:00pm 13.6 10.4 12.0 90 0.9 SSW 20 32 11 17 - - 13.6
18/01:45pm 13.6 8.8 11.8 89 1.0 S 28 48 15 26 - - 13.6
18/01:30pm 14.0 9.3 11.9 87 1.1 S 28 44 15 24 - - 13.4
18/01:00pm 13.5 9.6 12.2 92 0.7 S 24 39 13 21 - - 13.2
18/12:51pm 13.7 9.1 12.3 91 0.8 S 28 48 15 26 - - 12.8
18/12:30pm 13.8 10.0 12.5 92 0.7 S 24 43 13 23 - - 12.6
18/12:00pm 13.3 8.7 12.2 93 0.6 S 28 48 15 26 - - 12.0
18/11:48am 13.3 8.6 12.0 92 0.7 S 28 46 15 25 - - 11.4
18/11:30am 13.5 8.9 12.2 92 0.7 S 28 44 15 24 - - 10.6
18/11:00am 13.5 8.6 12.4 93 0.6 S 30 59 16 32 - - 9.0
18/10:30am 13.5 8.2 12.6 94 0.5 S 32 57 17 31 - - 7.6
18/10:03am 13.4 8.2 12.9 97 0.3 SSE 32 50 17 27 - - 5.0
18/10:00am 13.3 7.9 12.8 97 0.3 SSE 33 50 18 27 - - 4.6
18/09:30am 13.8 8.5 13.2 96 0.3 S 33 56 18 30 - - 2.2
18/09:00am 13.6 8.4 13.3 98 0.2 S 33 57 18 31 - - 40.8
18/08:41am 13.6 9.0 13.4 99 0.1 SSE 30 67 16 36 - - 38.4
18/08:36am 13.5 9.2 13.3 99 0.1 SSE 28 48 15 26 - - 38.0
18/08:30am 13.2 8.8 13.0 99 0.1 S 28 44 15 24 - - 37.4
18/08:00am 11.0 8.8 10.7 98 0.2 NW 13 20 7 11 - - 23.4
18/07:30am 11.2 10.1 10.7 97 0.3 W 7 11 4 6 - - 15.0
18/07:00am 11.2 10.1 10.6 96 0.3 WNW 7 13 4 7 - - 11.8
18/06:37am 11.1 10.2 10.5 96 0.3 N 6 7 3 4 - - 11.0
18/06:30am 11.1 10.9 10.3 95 0.4 NNW 2 7 1 4 - - 10.8
18/06:00am 11.1 10.1 10.3 95 0.4 S 6 9 3 5 - - 10.8
18/05:55am 11.1 10.5 10.3 95 0.4 NW 4 9 2 5 - - 10.8
18/05:30am 11.1 9.9 10.2 94 0.5 NNW 7 9 4 5 - - 10.8
18/05:00am 11.3 11.3 9.9 91 0.7 CALM 0 0 0 0 - - 10.4
18/04:56am 11.3 11.3 9.9 91 0.7 CALM 0 0 0 0 - - 10.4
18/04:35am 11.2 9.9 9.9 92 0.7 NNW 7 13 4 7 - - 10.4
18/04:30am 11.2 9.5 9.9 92 0.7 NNW 9 13 5 7 - - 10.4
18/04:00am 11.4 9.4 10.1 92 0.7 WNW 11 17 6 9 - - 10.4
18/03:36am 11.5 9.5 10.1 91 0.7 NNW 11 19 6 10 - - 10.2
18/03:30am 11.5 9.5 10.2 92 0.7 NW 11 20 6 11 - - 10.2
18/03:00am 11.2 8.8 10.1 93 0.6 NW 13 19 7 10 - - 10.2
18/02:30am 11.2 9.2 10.1 93 0.6 NW 11 17 6 9 - - 10.2
18/02:13am 11.3 9.3 10.2 93 0.6 NW 11 20 6 11 - - 10.2
18/02:00am 11.4 9.0 10.0 91 0.7 NW 13 17 7 9 - - 10.2
18/01:40am 11.9 9.3 9.5 85 1.2 WNW 13 19 7 10 - - 9.6
18/01:30am 12.1 9.5 9.3 83 1.4 WNW 13 19 7 10 - - 9.6
18/01:00am 12.4 10.1 9.1 80 1.7 WNW 11 20 6 11 - - 9.6
18/12:30am 12.4 10.4 8.7 78 1.8 WNW 9 15 5 8 - - 9.6
18/12:00am 12.1 10.5 8.9 81 1.6 WNW 7 11 4 6 - - 9.6
 
Date/Time
EST
Temp
°C
App
Temp
°C
Dew
Point
Rel
Hum
%
Delta-T
°C
Wind Press
QNH
hPa
Press
MSL
hPa
Rain
since 9 am
mm
Dir
 
Spd
km/h
Gust
km/h
Spd
kts
Gust
kts
17/11:30pm 11.9 10.4 9.1 83 1.4 NW 7 11 4 6 - - 9.6
17/11:00pm 11.3 9.7 8.9 85 1.2 NW 7 9 4 5 - - 9.6
17/10:30pm 11.1 10.4 8.5 84 1.3 WNW 2 6 1 3 - - 9.6
17/10:00pm 11.8 11.0 8.1 78 1.8 WNW 2 7 1 4 - - 9.6
17/09:30pm 12.6 10.6 8.5 76 2.0 W 9 13 5 7 - - 9.6
17/09:00pm 13.2 10.8 8.5 73 2.3 W 11 15 6 8 - - 9.6
17/08:30pm 13.5 10.0 8.8 73 2.4 W 17 26 9 14 - - 9.6
17/08:00pm 13.1 11.4 9.7 80 1.7 WNW 9 13 5 7 - - 9.6
17/07:30pm 11.6 11.7 10.0 90 0.8 CALM 0 0 0 0 - - 9.6
17/07:00pm 11.8 10.6 9.5 86 1.2 NNW 6 9 3 5 - - 9.6
17/06:30pm 13.1 12.2 10.5 84 1.4 W 6 9 3 5 - - 9.6
17/06:00pm 13.7 12.6 10.5 81 1.7 W 7 15 4 8 - - 9.6
17/05:30pm 14.7 12.9 10.7 77 2.1 W 11 19 6 10 - - 9.6
17/05:00pm 15.1 12.2 10.9 76 2.2 W 17 24 9 13 - - 9.6
17/04:30pm 15.2 12.4 11.2 77 2.1 WNW 17 24 9 13 - - 9.6
17/04:00pm 15.6 13.0 12.0 79 2.0 WNW 17 24 9 13 - - 9.6
17/03:30pm 15.5 12.8 13.0 85 1.4 W 19 32 10 17 - - 9.6
17/03:00pm 15.7 13.2 12.3 80 1.9 WNW 17 30 9 16 - - 9.6

Other Formats:

Comma delimited format used in spreadsheet applications
http://www.bom.gov.au/fwo/IDN60801/IDN60801.94766.axf

JavaScript Object Notation format (JSON) in row-major order
http://www.bom.gov.au/fwo/IDN60801/IDN60801.94766.json